Time;durP1;ratioP1;P1;durP2;ratioP2;P2;SDS_P1;SDS_P2;PMS_P1;PMS_P2;Temp;Humidity;BMP_temperature;BMP_pressure;BME280_temperature;BME280_humidity;BME280_pressure;Samples;Min_cycle;Max_cycle;Signal;HPM_P1;HPM_P2
2021/10/17 00:00:25;;;;;;;;;;;;;;;21.18;56.32;100774.94;2083797;28;1890;-60
2021/10/17 00:01:25;;;;;;;;;;;;;;;;;;2084125;28;811;-59
2021/10/17 00:02:25;;;;;;;;;;;;;;;;;;2084135;28;803;-60
2021/10/17 00:03:25;;;;;;;;;;;;;;;21.20;56.24;100784.78;2083794;28;1243;-60
2021/10/17 00:04:26;;;;;;;;;;;;;;;21.17;54.95;100778.56;2084152;28;822;-60
2021/10/17 00:05:27;;;;;;;;;;;;;;;21.20;55.39;100779.38;2084041;28;973;-60
2021/10/17 00:06:28;;;;;;;;;;;;;;;21.21;55.69;100778.41;2084009;28;787;-60
2021/10/17 00:07:28;;;;;;;;;;;;;;;21.19;55.76;100786.56;2084053;28;925;-60
2021/10/17 00:08:28;;;;;;;;;;;;;;;21.23;55.23;100784.63;2083791;28;819;-60
2021/10/17 00:09:29;;;;;;;;;;;;;;;21.18;56.38;100774.94;2083756;28;1074;-59
2021/10/17 00:10:29;;;;;;;;;;;;;;;;;;2084053;28;898;-60
2021/10/17 00:11:29;;;;;;;;;;;;;;;21.19;55.95;100783.88;2083962;28;791;-59
2021/10/17 00:12:29;;;;;;;;;;;;;;;21.16;56.28;100778.59;2084036;28;961;-60
2021/10/17 00:13:29;;;;;;;;;;;;;;;21.17;55.49;100789.34;2084027;28;962;-59
2021/10/17 00:14:29;;;;;;;;;;;;;;;21.16;55.85;100782.19;2083894;28;902;-60
2021/10/17 00:15:30;;;;;;;;;;;;;;;21.18;56.26;100779.44;2083995;28;981;-59
2021/10/17 00:16:30;;;;;;;;;;;;;;;21.16;56.01;100782.19;2083898;28;864;-59
2021/10/17 00:17:31;;;;;;;;;;;;;;;21.16;56.26;100781.28;2083916;28;855;-60
2021/10/17 00:18:31;;;;;;;;;;;;;;;21.16;55.63;100789.38;2084000;28;1150;-59
2021/10/17 00:19:31;;;;;;;;;;;;;;;21.16;55.66;100787.56;2083825;28;1065;-60
2021/10/17 00:20:31;;;;;;;;;;;;;;;21.15;55.99;100795.69;2083874;28;1906;-60
2021/10/17 00:21:31;;;;;;;;;;;;;;;21.13;56.57;100785.00;2083986;28;1017;-59
2021/10/17 00:22:32;;;;;;;;;;;;;;;21.15;55.74;100791.22;2083961;28;819;-60
2021/10/17 00:23:32;;;;;;;;;;;;;;;21.16;55.50;100797.47;2083943;28;868;-59
2021/10/17 00:24:33;;;;;;;;;;;;;;;21.14;55.91;100800.22;2083861;28;1036;-60
2021/10/17 00:25:33;;;;;;;;;;;;;;;21.15;55.89;100796.59;2083986;28;883;-60
2021/10/17 00:26:34;;;;;;;;;;;;;;;21.14;55.94;100793.94;2083880;28;970;-59
2021/10/17 00:27:35;;;;;;;;;;;;;;;21.18;56.15;100795.59;2083863;28;854;-60
2021/10/17 00:28:35;;;;;;;;;;;;;;;21.15;55.27;100795.69;2083934;28;1012;-59
2021/10/17 00:29:35;;;;;;;;;;;;;;;21.15;55.58;100803.78;2083741;28;839;-60
2021/10/17 00:30:35;;;;;;;;;;;;;;;21.14;55.82;100802.03;2083631;28;1405;-60
2021/10/17 00:31:35;;;;;;;;;;;;;;;21.14;56.44;100799.31;2083735;28;753;-59
2021/10/17 00:32:36;;;;;;;;;;;;;;;21.16;56.26;100801.03;2083844;28;769;-60
2021/10/17 00:33:37;;;;;;;;;;;;;;;21.16;55.08;100809.13;2083837;28;1139;-59
2021/10/17 00:34:37;;;;;;;;;;;;;;;21.16;55.49;100809.13;2083842;28;886;-60
2021/10/17 00:35:37;;;;;;;;;;;;;;;21.15;55.65;100810.06;2083810;28;961;-60
2021/10/17 00:36:38;;;;;;;;;;;;;;;21.13;56.67;100811.03;2083831;28;878;-60
2021/10/17 00:37:38;;;;;;;;;;;;;;;21.12;56.27;100812.88;2083605;28;1223;-60
2021/10/17 00:38:38;;;;;;;;;;;;;;;21.17;55.39;100810.88;2083707;28;787;-59
2021/10/17 00:39:39;;;;;;;;;;;;;;;21.13;55.93;100811.94;2083887;28;969;-62
2021/10/17 00:40:39;;;;;;;;;;;;;;;21.10;55.86;100814.72;2083700;28;1882;-59
2021/10/17 00:41:39;;;;;;;;;;;;;;;21.12;56.19;100809.28;2083771;28;969;-60
2021/10/17 00:42:40;;;;;;;;;;;;;;;21.13;55.95;100809.25;2083893;28;761;-59
2021/10/17 00:43:40;;;;;;;;;;;;;;;21.12;55.74;100814.66;2083587;28;925;-59
2021/10/17 00:44:41;;;;;;;;;;;;;;;21.14;55.63;100805.59;2083788;28;984;-60
2021/10/17 00:45:42;;;;;;;;;;;;;;;21.12;55.92;100811.97;2083803;28;882;-60
2021/10/17 00:46:42;;;;;;;;;;;;;;;21.10;55.62;100809.34;2083361;28;1044;-60
2021/10/17 00:47:42;;;;;;;;;;;;;;;21.13;56.01;100809.25;2074942;28;814;-59
2021/10/17 00:48:42;;;;;;;;;;;;;;;21.14;55.67;100815.50;2074970;28;859;-60
2021/10/17 00:49:42;;;;;;;;;;;;;;;21.14;55.78;100813.69;2083500;28;840;-60
2021/10/17 00:50:42;;;;;;;;;;;;;;;21.10;55.61;100814.72;2083784;28;847;-59
2021/10/17 00:51:43;;;;;;;;;;;;;;;21.10;56.43;100809.34;2083626;28;1048;-60
2021/10/17 00:52:44;;;;;;;;;;;;;;;21.13;56.22;100816.41;2083643;28;839;-59
2021/10/17 00:53:44;;;;;;;;;;;;;;;21.11;55.84;100805.72;2083697;28;859;-60
2021/10/17 00:54:45;;;;;;;;;;;;;;;21.16;55.08;100819.00;2083643;28;965;-60
2021/10/17 00:55:46;;;;;;;;;;;;;;;21.09;55.76;100815.66;2083713;28;812;-60
2021/10/17 00:56:46;;;;;;;;;;;;;;;21.09;56.06;100810.28;2082959;28;1036;-60
2021/10/17 00:57:46;;;;;;;;;;;;;;;21.12;55.92;100809.28;2083460;28;879;-59
2021/10/17 00:58:47;;;;;;;;;;;;;;;21.11;56.46;100819.19;2074808;28;867;-60
2021/10/17 00:59:48;;;;;;;;;;;;;;;21.11;56.00;100812.91;2074789;28;1949;-59
2021/10/17 01:00:49;;;;;;;;;;;;;;;21.11;56.08;100808.41;2083606;28;906;-60
2021/10/17 01:01:49;;;;;;;;;;;;;;;21.11;55.94;100812.91;2083643;28;878;-60
2021/10/17 01:02:49;;;;;;;;;;;;;;;21.09;56.17;100812.06;2074602;28;1237;-59
2021/10/17 01:03:49;;;;;;;;;;;;;;;21.11;56.50;100818.28;2074862;28;780;-60
2021/10/17 01:04:49;;;;;;;;;;;;;;;21.10;56.08;100816.53;2083521;28;859;-60
2021/10/17 01:05:50;;;;;;;;;;;;;;;21.11;56.41;100816.50;2083397;28;1494;-59
2021/10/17 01:06:51;;;;;;;;;;;;;;;21.10;55.77;100819.22;2083601;28;815;-59
2021/10/17 01:07:51;;;;;;;;;;;;;;;21.10;55.99;100814.72;2083616;28;846;-60
2021/10/17 01:08:51;;;;;;;;;;;;;;;21.10;55.83;100814.72;2083435;28;1117;-60
2021/10/17 01:09:51;;;;;;;;;;;;;;;21.10;56.58;100820.13;2083453;28;1381;-59
2021/10/17 01:10:56;;;;;;;;;;;;;;;21.09;56.13;100817.47;2083350;28;1291;-60
2021/10/17 01:11:56;;;;;;;;;;;;;;;21.10;55.79;100814.72;2083462;28;747;-59
2021/10/17 01:12:56;;;;;;;;;;;;;;;21.10;56.50;100819.22;2083576;28;890;-60
2021/10/17 01:13:56;;;;;;;;;;;;;;;21.10;56.05;100819.22;2083367;28;993;-60
2021/10/17 01:14:56;;;;;;;;;;;;;;;21.12;56.29;100812.88;2074758;28;882;-60
2021/10/17 01:15:57;;;;;;;;;;;;;;;21.10;55.87;100817.44;2074799;28;970;-60
2021/10/17 01:16:57;;;;;;;;;;;;;;;21.12;56.20;100815.56;2083473;28;926;-60
2021/10/17 01:17:57;;;;;;;;;;;;;;;21.12;55.97;100820.06;2083567;28;767;-60
2021/10/17 01:18:57;;;;;;;;;;;;;;;21.08;56.13;100811.22;2083418;28;823;-59
2021/10/17 01:19:58;;;;;;;;;;;;;;;21.07;56.23;100816.63;2083515;28;1973;-60
2021/10/17 01:20:58;;;;;;;;;;;;;;;21.11;55.77;100815.59;2083472;28;1057;-60
2021/10/17 01:21:59;;;;;;;;;;;;;;;21.11;55.57;100819.19;2083109;28;994;-59
2021/10/17 01:22:59;;;;;;;;;;;;;;;21.10;55.85;100817.44;2083458;28;791;-60
2021/10/17 01:23:59;;;;;;;;;;;;;;;21.09;56.11;100817.47;2083558;28;1032;-59
2021/10/17 01:25:00;;;;;;;;;;;;;;;21.11;56.06;100815.59;2083436;28;807;-60
2021/10/17 01:26:00;;;;;;;;;;;;;;;21.11;55.86;100820.97;2083470;28;1032;-60
2021/10/17 01:27:00;;;;;;;;;;;;;;;21.09;56.04;100812.06;2083353;28;1032;-59
2021/10/17 01:28:00;;;;;;;;;;;;;;;21.10;56.10;100820.13;2083459;28;826;-60
2021/10/17 01:29:01;;;;;;;;;;;;;;;21.11;56.20;100815.59;2083420;28;868;-59
2021/10/17 01:30:01;;;;;;;;;;;;;;;21.08;56.53;100811.22;2083280;28;906;-60
2021/10/17 01:31:01;;;;;;;;;;;;;;;21.10;55.79;100821.91;2083331;28;978;-60
2021/10/17 01:32:02;;;;;;;;;;;;;;;21.10;55.70;100811.16;2083446;28;966;-60
2021/10/17 01:33:02;;;;;;;;;;;;;;;21.10;55.75;100814.72;2083457;28;815;-60
2021/10/17 01:34:04;;;;;;;;;;;;;;;21.11;55.52;100811.09;2083323;28;969;-59
2021/10/17 01:35:04;;;;;;;;;;;;;;;21.10;55.94;100814.72;2083383;28;1009;-60
2021/10/17 01:36:04;;;;;;;;;;;;;;;21.09;55.77;100817.47;2083363;28;819;-60
2021/10/17 01:37:05;;;;;;;;;;;;;;;21.08;55.52;100810.31;2083314;28;1459;-59
2021/10/17 01:38:05;;;;;;;;;;;;;;;21.10;55.32;100816.53;2083295;28;823;-60
2021/10/17 01:39:06;;;;;;;;;;;;;;;21.06;56.35;100814.88;2083405;28;1044;-59
2021/10/17 01:40:07;;;;;;;;;;;;;;;21.07;56.00;100820.22;2083146;28;1967;-60
2021/10/17 01:41:07;;;;;;;;;;;;;;;21.10;55.98;100817.44;2083315;28;772;-59
2021/10/17 01:42:07;;;;;;;;;;;;;;;21.09;55.81;100821.06;2083289;28;982;-60
2021/10/17 01:43:07;;;;;;;;;;;;;;;21.08;55.81;100816.59;2083212;28;843;-60
2021/10/17 01:44:09;;;;;;;;;;;;;;;21.07;55.80;100820.22;2083248;28;907;-59
2021/10/17 01:45:09;;;;;;;;;;;;;;;21.08;55.27;100822.00;2083310;28;784;-59
2021/10/17 01:46:09;;;;;;;;;;;;;;;21.08;55.89;100824.69;2083150;28;981;-59
2021/10/17 01:47:10;;;;;;;;;;;;;;;21.07;55.86;100820.22;2083325;28;1089;-60
2021/10/17 01:48:10;;;;;;;;;;;;;;;21.07;56.00;100819.34;2083386;28;796;-59
2021/10/17 01:49:14;;;;;;;;;;;;;;;21.09;56.18;100821.06;2082919;28;910;-60
2021/10/17 01:50:14;;;;;;;;;;;;;;;21.07;55.58;100825.63;2083281;28;799;-60
2021/10/17 01:51:15;;;;;;;;;;;;;;;21.06;56.40;100822.97;2083307;28;772;-59
2021/10/17 01:52:15;;;;;;;;;;;;;;;21.06;56.51;100826.56;2083279;28;1396;-60
2021/10/17 01:53:15;;;;;;;;;;;;;;;21.09;55.64;100828.25;2083350;28;843;-59
2021/10/17 01:54:15;;;;;;;;;;;;;;;21.09;56.37;100829.13;2083082;28;868;-59
2021/10/17 01:55:15;;;;;;;;;;;;;;;21.08;56.39;100829.16;2083275;28;1041;-60
2021/10/17 01:56:15;;;;;;;;;;;;;;;21.08;56.25;100830.06;2083227;28;1037;-59
2021/10/17 01:57:16;;;;;;;;;;;;;;;21.08;55.66;100832.75;2083177;28;1100;-60
2021/10/17 01:58:16;;;;;;;;;;;;;;;21.06;56.64;100831.94;2083237;28;969;-59
2021/10/17 01:59:16;;;;;;;;;;;;;;;21.08;56.26;100830.06;2083210;28;969;-60
2021/10/17 02:00:16;;;;;;;;;;;;;;;21.08;56.29;100835.47;2082347;28;1980;-59
2021/10/17 02:01:16;;;;;;;;;;;;;;;21.07;55.45;100831.00;2083238;28;835;-59
2021/10/17 02:02:16;;;;;;;;;;;;;;;21.07;56.60;100827.41;2083050;28;1124;-60
2021/10/17 02:03:17;;;;;;;;;;;;;;;21.09;55.69;100831.81;2083240;28;843;-59
2021/10/17 02:04:17;;;;;;;;;;;;;;;21.05;55.82;100827.47;2083237;28;1028;-60
2021/10/17 02:05:17;;;;;;;;;;;;;;;21.06;55.70;100831.94;2083254;28;823;-59
2021/10/17 02:06:17;;;;;;;;;;;;;;;21.07;55.85;100831.00;2083184;28;1005;-59
2021/10/17 02:07:17;;;;;;;;;;;;;;;21.05;56.55;100831.97;2083116;28;993;-60
2021/10/17 02:08:18;;;;;;;;;;;;;;;21.08;55.79;100827.38;2082851;28;843;-59
2021/10/17 02:09:18;;;;;;;;;;;;;;;21.06;55.56;100833.72;2083008;28;1381;-60
2021/10/17 02:10:18;;;;;;;;;;;;;;;21.06;56.16;100829.25;2083147;28;788;-59
2021/10/17 02:11:18;;;;;;;;;;;;;;;21.07;55.82;100830.09;2083081;28;855;-60
2021/10/17 02:12:21;;;;;;;;;;;;;;;21.06;56.51;100831.03;2083207;28;989;-59
2021/10/17 02:13:21;;;;;;;;;;;;;;;21.05;55.95;100832.88;2083200;28;854;-60
2021/10/17 02:14:22;;;;;;;;;;;;;;;21.02;56.39;100833.84;2082955;28;981;-60
2021/10/17 02:15:22;;;;;;;;;;;;;;;21.06;56.00;100831.94;2083238;28;771;-60
2021/10/17 02:16:22;;;;;;;;;;;;;;;21.04;56.41;100828.41;2083167;28;1044;-60
2021/10/17 02:17:23;;;;;;;;;;;;;;;21.05;55.72;100832.88;2083208;28;1246;-59
2021/10/17 02:18:23;;;;;;;;;;;;;;;21.06;55.89;100836.44;2083203;28;795;-60
2021/10/17 02:19:23;;;;;;;;;;;;;;;21.07;56.55;100831.00;2083143;28;926;-60
2021/10/17 02:20:23;;;;;;;;;;;;;;;21.06;55.65;100831.94;2083136;28;1957;-60
2021/10/17 02:21:23;;;;;;;;;;;;;;;21.04;55.80;100833.81;2083117;28;977;-60
2021/10/17 02:22:24;;;;;;;;;;;;;;;21.06;55.79;100839.13;2082955;28;981;-59
2021/10/17 02:23:24;;;;;;;;;;;;;;;21.04;56.12;100828.41;2083140;28;1337;-60
2021/10/17 02:24:24;;;;;;;;;;;;;;;21.02;56.60;100835.66;2083220;28;818;-60
2021/10/17 02:25:24;;;;;;;;;;;;;;;21.05;56.09;100840.06;2083139;28;1408;-59
2021/10/17 02:26:24;;;;;;;;;;;;;;;21.02;55.94;100838.38;2083184;28;850;-60
2021/10/17 02:27:24;;;;;;;;;;;;;;;21.02;56.16;100838.38;2083049;28;977;-59
2021/10/17 02:28:25;;;;;;;;;;;;;;;20.99;55.85;100841.16;2083136;28;795;-60
2021/10/17 02:29:25;;;;;;;;;;;;;;;21.04;56.36;100839.19;2083158;28;989;-59
2021/10/17 02:30:25;;;;;;;;;;;;;;;21.04;56.18;100844.56;2082788;28;981;-60
2021/10/17 02:31:26;;;;;;;;;;;;;;;21.02;56.69;100841.06;2083155;28;787;-60
2021/10/17 02:32:26;;;;;;;;;;;;;;;21.05;55.88;100843.66;2083051;28;871;-59
2021/10/17 02:33:26;;;;;;;;;;;;;;;21.05;56.48;100845.44;2083140;28;847;-60
2021/10/17 02:34:26;;;;;;;;;;;;;;;21.05;56.32;100848.13;2083158;28;976;-60
2021/10/17 02:35:27;;;;;;;;;;;;;;;21.02;56.22;100844.63;2083082;28;926;-60
2021/10/17 02:36:27;;;;;;;;;;;;;;;21.03;55.92;100841.00;2083126;28;877;-60
2021/10/17 02:37:30;;;;;;;;;;;;;;;21.01;55.69;100842.00;2074256;28;1491;-59
2021/10/17 02:38:30;;;;;;;;;;;;;;;21.00;55.92;100837.53;2074655;28;878;-60
2021/10/17 02:39:30;;;;;;;;;;;;;;;21.03;55.58;100846.38;2083102;28;1001;-59
2021/10/17 02:40:30;;;;;;;;;;;;;;;21.03;56.61;100845.50;2082979;28;1953;-60
2021/10/17 02:41:31;;;;;;;;;;;;;;;21.03;55.97;100850.91;2083112;28;862;-60
2021/10/17 02:42:31;;;;;;;;;;;;;;;21.01;56.29;100848.25;2083080;28;862;-60
2021/10/17 02:43:31;;;;;;;;;;;;;;;21.03;55.96;100851.75;2083010;28;906;-60
2021/10/17 02:44:31;;;;;;;;;;;;;;;21.01;55.75;100848.25;2083082;28;1020;-59
2021/10/17 02:45:31;;;;;;;;;;;;;;;21.03;55.95;100846.38;2082973;28;856;-59
2021/10/17 02:46:31;;;;;;;;;;;;;;;21.00;56.69;100856.38;2083082;28;965;-59
2021/10/17 02:47:32;;;;;;;;;;;;;;;21.02;55.93;100855.38;2083182;28;981;-60
2021/10/17 02:48:32;;;;;;;;;;;;;;;21.01;56.04;100850.94;2082873;28;1036;-60
2021/10/17 02:49:32;;;;;;;;;;;;;;;21.02;56.04;100850.00;2083193;28;727;-59
2021/10/17 02:50:32;;;;;;;;;;;;;;;21.03;56.05;100853.59;2083058;28;771;-60
2021/10/17 02:51:33;;;;;;;;;;;;;;;21.05;56.18;100857.09;2082908;28;997;-59
2021/10/17 02:52:33;;;;;;;;;;;;;;;21.01;56.66;100855.47;2083032;28;973;-59
2021/10/17 02:53:33;;;;;;;;;;;;;;;21.02;55.75;100860.78;2083062;28;856;-60
2021/10/17 02:54:33;;;;;;;;;;;;;;;21.04;55.62;100866.13;2083076;28;834;-59
2021/10/17 02:55:34;;;;;;;;;;;;;;;21.06;56.08;100863.34;2083056;28;866;-60
2021/10/17 02:56:34;;;;;;;;;;;;;;;21.05;56.12;100865.19;2082888;28;792;-59
2021/10/17 02:57:34;;;;;;;;;;;;;;;21.02;56.11;100865.28;2083127;28;744;-59
2021/10/17 02:58:34;;;;;;;;;;;;;;;21.04;55.69;100866.13;2083079;28;842;-60
2021/10/17 02:59:34;;;;;;;;;;;;;;;21.01;56.53;100864.41;2082978;28;855;-59
2021/10/17 03:00:34;;;;;;;;;;;;;;;21.01;56.13;100860.84;2082965;28;1882;-60
2021/10/17 03:01:35;;;;;;;;;;;;;;;21.03;56.27;100861.66;2083001;28;870;-59
2021/10/17 03:02:35;;;;;;;;;;;;;;;21.05;56.22;100864.28;2082644;28;1160;-60
2021/10/17 03:03:35;;;;;;;;;;;;;;;21.03;55.65;100873.31;2083038;28;815;-60
2021/10/17 03:04:35;;;;;;;;;;;;;;;21.02;56.04;100862.59;2082998;28;775;-59
2021/10/17 03:05:35;;;;;;;;;;;;;;;21.02;56.37;100867.97;2083036;28;994;-60
2021/10/17 03:06:35;;;;;;;;;;;;;;;21.05;55.55;100869.69;2082989;28;977;-59
2021/10/17 03:07:35;;;;;;;;;;;;;;;21.02;56.67;100860.78;2082998;28;1357;-59
2021/10/17 03:08:36;;;;;;;;;;;;;;;21.06;56.32;100863.34;2083053;28;815;-59
2021/10/17 03:09:36;;;;;;;;;;;;;;;21.02;55.67;100868.84;2082959;28;1067;-59
2021/10/17 03:10:36;;;;;;;;;;;;;;;21.00;55.98;100868.03;2082829;28;1310;-60
2021/10/17 03:11:37;;;;;;;;;;;;;;;21.02;56.05;100860.78;2082943;28;917;-59
2021/10/17 03:12:37;;;;;;;;;;;;;;;21.03;56.03;100867.91;2082955;28;963;-59
2021/10/17 03:13:37;;;;;;;;;;;;;;;21.02;55.94;100866.16;2082682;28;1225;-59
2021/10/17 03:14:37;;;;;;;;;;;;;;;21.05;55.61;100858.91;2082998;28;969;-60
2021/10/17 03:15:37;;;;;;;;;;;;;;;21.05;55.97;100864.28;2082985;28;911;-59
2021/10/17 03:16:37;;;;;;;;;;;;;;;21.04;56.17;100860.72;2082806;28;867;-60
2021/10/17 03:17:38;;;;;;;;;;;;;;;21.03;56.20;100865.22;2083021;28;859;-60
2021/10/17 03:18:38;;;;;;;;;;;;;;;21.02;56.59;100863.47;2082890;28;925;-59
2021/10/17 03:19:38;;;;;;;;;;;;;;;21.04;56.03;100863.44;2082925;28;1032;-59
2021/10/17 03:20:38;;;;;;;;;;;;;;;21.05;56.47;100854.41;2084011;28;1906;-60
2021/10/17 03:21:39;;;;;;;;;;;;;;;21.03;56.16;100861.66;2084269;28;831;-59
2021/10/17 03:22:39;;;;;;;;;;;;;;;21.04;56.27;100863.44;2084325;28;2052;-60
2021/10/17 03:23:39;;;;;;;;;;;;;;;21.04;56.22;100863.44;2084402;28;918;-59
2021/10/17 03:24:39;;;;;;;;;;;;;;;21.02;56.29;100865.28;2084416;28;799;-59
2021/10/17 03:25:39;;;;;;;;;;;;;;;21.03;55.70;100858.97;2084412;28;1013;-60
2021/10/17 03:26:39;;;;;;;;;;;;;;;21.04;55.64;100863.44;2084310;28;1029;-59
2021/10/17 03:27:39;;;;;;;;;;;;;;;21.05;55.61;100853.53;2084460;28;906;-59
2021/10/17 03:28:40;;;;;;;;;;;;;;;21.03;55.82;100856.28;2084318;28;973;-60
2021/10/17 03:29:40;;;;;;;;;;;;;;;21.02;55.74;100863.47;2084401;28;794;-59
2021/10/17 03:30:40;;;;;;;;;;;;;;;21.04;56.44;100863.44;2084366;28;832;-60
2021/10/17 03:31:41;;;;;;;;;;;;;;;21.03;55.85;100861.66;2084107;28;816;-60
2021/10/17 03:32:42;;;;;;;;;;;;;;;21.04;55.55;100858.03;2084211;28;995;-60
2021/10/17 03:33:42;;;;;;;;;;;;;;;21.02;56.20;100860.78;2084366;28;945;-59
2021/10/17 03:34:42;;;;;;;;;;;;;;;21.00;55.84;100859.94;2084374;28;973;-59
2021/10/17 03:35:42;;;;;;;;;;;;;;;21.02;55.85;100857.22;2084383;28;899;-59
2021/10/17 03:36:42;;;;;;;;;;;;;;;21.02;56.00;100859.91;2075411;28;1344;-59
2021/10/17 03:37:42;;;;;;;;;;;;;;;21.02;56.58;100857.22;2075639;28;764;-60
2021/10/17 03:38:43;;;;;;;;;;;;;;;21.01;56.29;100859.00;2084254;28;906;-59
2021/10/17 03:39:43;;;;;;;;;;;;;;;20.99;56.13;100857.31;2084238;28;776;-60
2021/10/17 03:40:43;;;;;;;;;;;;;;;21.05;56.44;100861.59;2084257;28;1963;-60
2021/10/17 03:41:43;;;;;;;;;;;;;;;21.01;56.06;100866.22;2084315;28;837;-59
2021/10/17 03:42:43;;;;;;;;;;;;;;;21.00;55.63;100859.09;2083988;28;1019;-60
2021/10/17 03:43:43;;;;;;;;;;;;;;;21.00;56.09;100869.84;2084416;28;785;-60
2021/10/17 03:44:44;;;;;;;;;;;;;;;21.01;56.35;100860.84;2084255;28;858;-60
2021/10/17 03:45:44;;;;;;;;;;;;;;;21.03;56.26;100867.91;2084209;28;895;-59
2021/10/17 03:46:44;;;;;;;;;;;;;;;21.06;55.24;100866.06;2084355;28;845;-59
2021/10/17 03:47:44;;;;;;;;;;;;;;;21.04;55.83;100868.81;2084165;28;768;-59
2021/10/17 03:48:44;;;;;;;;;;;;;;;21.04;55.84;100860.72;2084257;28;836;-59
2021/10/17 03:49:44;;;;;;;;;;;;;;;21.03;55.59;100857.16;2084242;28;855;-60
2021/10/17 03:50:44;;;;;;;;;;;;;;;21.02;55.89;100865.28;2084016;28;981;-60
2021/10/17 03:51:45;;;;;;;;;;;;;;;21.03;55.82;100856.28;2084250;28;867;-59
2021/10/17 03:52:45;;;;;;;;;;;;;;;21.01;56.43;100859.00;2084190;28;981;-59
2021/10/17 03:53:45;;;;;;;;;;;;;;;21.01;56.35;100858.16;2084181;28;827;-59
2021/10/17 03:54:45;;;;;;;;;;;;;;;21.01;56.62;100859.00;2084166;28;898;-60
2021/10/17 03:55:45;;;;;;;;;;;;;;;21.01;56.75;100864.41;2083942;28;1032;-60
2021/10/17 03:56:46;;;;;;;;;;;;;;;21.02;56.07;100854.53;2084184;28;673;-59
2021/10/17 03:57:46;;;;;;;;;;;;;;;20.99;56.47;100850.09;2084212;28;807;-60
2021/10/17 03:58:46;;;;;;;;;;;;;;;21.02;55.81;100850.00;2083883;28;978;-59
2021/10/17 03:59:46;;;;;;;;;;;;;;;21.01;56.01;100848.25;2084133;28;779;-59
2021/10/17 04:00:46;;;;;;;;;;;;;;;21.02;55.97;100854.53;2084079;28;1902;-60
2021/10/17 04:01:46;;;;;;;;;;;;;;;21.01;56.16;100856.31;2075225;28;997;-59
2021/10/17 04:02:46;;;;;;;;;;;;;;;21.02;55.79;100854.53;2075403;28;782;-60
2021/10/17 04:03:47;;;;;;;;;;;;;;;21.35;54.57;100856.94;2075210;28;828;-59
2021/10/17 04:04:47;;;;;;;;;;;;;;;21.77;53.61;100852.72;2075132;28;977;-59
2021/10/17 04:05:47;;;;;;;;;;;;;;;21.93;53.41;100853.00;2084039;28;783;-59
2021/10/17 04:06:47;;;;;;;;;;;;;;;22.02;52.91;100860.75;2084071;28;858;-59
2021/10/17 04:07:47;;;;;;;;;;;;;;;22.11;53.26;100858.63;2084094;28;1020;-59
2021/10/17 04:08:47;;;;;;;;;;;;;;;22.15;52.81;100854.88;2084126;28;842;-60
2021/10/17 04:09:48;;;;;;;;;;;;;;;22.22;52.73;100853.69;2083860;28;1203;-59
2021/10/17 04:10:49;;;;;;;;;;;;;;;22.26;52.57;100860.72;2083986;28;1349;-60
2021/10/17 04:11:51;;;;;;;;;;;;;;;22.30;52.47;100859.66;2084008;28;886;-58
2021/10/17 04:12:51;;;;;;;;;;;;;;;22.34;52.76;100857.69;2083744;28;1264;-59
2021/10/17 04:13:51;;;;;;;;;;;;;;;22.36;51.67;100851.31;2084088;28;778;-60
2021/10/17 04:14:51;;;;;;;;;;;;;;;22.42;51.50;100850.16;2083995;28;981;-59
2021/10/17 04:15:52;;;;;;;;;;;;;;;22.43;51.58;100851.03;2084025;28;832;-59
2021/10/17 04:16:52;;;;;;;;;;;;;;;22.47;52.26;100847.31;2083995;28;1020;-60
2021/10/17 04:17:52;;;;;;;;;;;;;;;22.50;51.91;100841.78;2083761;28;1025;-59
2021/10/17 04:18:52;;;;;;;;;;;;;;;22.54;52.07;100854.22;2084026;28;906;-59
2021/10/17 04:19:52;;;;;;;;;;;;;;;22.56;51.70;100848.75;2083898;28;1985;-60
2021/10/17 04:20:52;;;;;;;;;;;;;;;22.58;51.61;100853.13;2083771;28;767;-59
2021/10/17 04:21:53;;;;;;;;;;;;;;;22.61;51.61;100849.44;2083871;28;787;-60
2021/10/17 04:22:53;;;;;;;;;;;;;;;22.62;51.94;100848.50;2083987;28;985;-59
2021/10/17 04:23:53;;;;;;;;;;;;;;;22.63;51.21;100848.44;2083701;28;827;-59
2021/10/17 04:24:53;;;;;;;;;;;;;;;22.68;51.77;100847.34;2083830;28;985;-60
2021/10/17 04:25:53;;;;;;;;;;;;;;;22.66;51.50;100850.13;2083953;28;965;-59
2021/10/17 04:26:53;;;;;;;;;;;;;;;22.65;51.63;100849.25;2083868;28;764;-59
2021/10/17 04:27:53;;;;;;;;;;;;;;;22.66;51.25;100850.13;2083926;28;847;-59
2021/10/17 04:28:54;;;;;;;;;;;;;;;22.65;51.97;100851.09;2083926;28;899;-59
2021/10/17 04:29:54;;;;;;;;;;;;;;;22.68;51.20;100852.75;2083776;28;863;-59
2021/10/17 04:30:54;;;;;;;;;;;;;;;22.73;51.17;100848.03;2083888;28;1021;-59
2021/10/17 04:31:54;;;;;;;;;;;;;;;22.70;51.43;100850.88;2083879;28;776;-59
2021/10/17 04:32:54;;;;;;;;;;;;;;;22.70;51.54;100854.44;2083869;28;855;-59
2021/10/17 04:33:54;;;;;;;;;;;;;;;22.72;51.57;100855.25;2075113;28;817;-59
2021/10/17 04:34:54;;;;;;;;;;;;;;;22.75;51.21;100856.97;2075209;28;1219;-60
2021/10/17 04:35:55;;;;;;;;;;;;;;;22.75;51.22;100856.97;2083815;28;986;-59
2021/10/17 04:36:55;;;;;;;;;;;;;;;22.74;51.27;100857.91;2083787;28;1471;-59
2021/10/17 04:37:55;;;;;;;;;;;;;;;22.74;51.62;100853.38;2083845;28;1040;-59
2021/10/17 04:38:55;;;;;;;;;;;;;;;22.73;51.19;100861.53;2083871;28;784;-59
2021/10/17 04:39:56;;;;;;;;;;;;;;;22.79;50.94;100859.44;2083525;28;1902;-60
2021/10/17 04:40:56;;;;;;;;;;;;;;;22.76;51.07;100864.13;2083795;28;960;-59
2021/10/17 04:41:56;;;;;;;;;;;;;;;22.79;51.76;100861.28;2083826;28;1032;-59
2021/10/17 04:42:56;;;;;;;;;;;;;;;22.77;50.83;100860.47;2083785;28;1032;-59
2021/10/17 04:43:57;;;;;;;;;;;;;;;22.78;51.52;100864.94;2083842;28;847;-59
2021/10/17 04:44:58;;;;;;;;;;;;;;;22.75;51.14;100862.38;2083820;28;895;-60
2021/10/17 04:46:00;;;;;;;;;;;;;;;22.76;51.47;100856.00;2083779;28;704;-59
2021/10/17 04:47:00;;;;;;;;;;;;;;;22.81;51.69;100862.09;2083822;28;833;-60
2021/10/17 04:48:00;;;;;;;;;;;;;;;22.80;50.95;100854.94;2083508;28;854;-59
2021/10/17 04:49:01;;;;;;;;;;;;;;;22.79;51.61;100864.00;2083680;28;858;-59
2021/10/17 04:50:01;;;;;;;;;;;;;;;22.80;51.30;100863.91;2083824;28;1035;-60
2021/10/17 04:51:01;;;;;;;;;;;;;;;22.83;50.98;100862.03;2083710;28;863;-59
2021/10/17 04:52:01;;;;;;;;;;;;;;;22.81;51.51;100859.41;2083770;28;970;-59
2021/10/17 04:53:01;;;;;;;;;;;;;;;22.82;51.27;100863.88;2083671;28;1032;-59
2021/10/17 04:54:02;;;;;;;;;;;;;;;22.83;51.56;100862.03;2074859;28;946;-59
2021/10/17 04:55:05;;;;;;;;;;;;;;;22.83;51.04;100865.63;2074961;28;981;-59
2021/10/17 04:56:05;;;;;;;;;;;;;;;22.85;51.10;100858.34;2083540;28;865;-59
2021/10/17 04:57:05;;;;;;;;;;;;;;;22.86;51.34;100848.38;2083732;28;822;-59
2021/10/17 04:58:06;;;;;;;;;;;;;;;22.88;51.49;100851.91;2083710;28;727;-60
2021/10/17 04:59:06;;;;;;;;;;;;;;;22.88;51.17;100860.91;2083718;28;1242;-59
2021/10/17 05:00:07;;;;;;;;;;;;;;;22.88;51.45;100857.31;2083648;28;1967;-59
2021/10/17 05:01:09;;;;;;;;;;;;;;;22.90;51.15;100856.31;2083628;28;779;-59
2021/10/17 05:02:10;;;;;;;;;;;;;;;22.91;51.95;100852.66;2083668;28;1005;-59
2021/10/17 05:03:10;;;;;;;;;;;;;;;22.92;51.35;100848.13;2083655;28;1203;-60
2021/10/17 05:04:10;;;;;;;;;;;;;;;22.94;51.05;100843.53;2083671;28;870;-59
2021/10/17 05:05:10;;;;;;;;;;;;;;;22.90;51.09;100842.81;2083620;28;898;-60
2021/10/17 05:06:10;;;;;;;;;;;;;;;22.92;50.84;100849.03;2083406;28;1083;-59
2021/10/17 05:07:11;;;;;;;;;;;;;;;22.94;51.49;100847.13;2083609;28;852;-59
2021/10/17 05:08:11;;;;;;;;;;;;;;;22.95;51.42;100854.28;2083572;28;1044;-60
2021/10/17 05:09:11;;;;;;;;;;;;;;;22.94;51.52;100854.34;2083309;28;1215;-59
2021/10/17 05:10:11;;;;;;;;;;;;;;;22.92;51.32;100853.53;2083387;28;973;-59
2021/10/17 05:11:11;;;;;;;;;;;;;;;22.91;51.64;100849.06;2083609;28;1220;-60
2021/10/17 05:12:11;;;;;;;;;;;;;;;22.98;51.66;100849.66;2083598;28;1032;-59
2021/10/17 05:13:11;;;;;;;;;;;;;;;22.97;51.12;100851.50;2083549;28;701;-60
2021/10/17 05:14:12;;;;;;;;;;;;;;;22.95;51.03;100857.00;2083592;28;890;-58
2021/10/17 05:15:12;;;;;;;;;;;;;;;22.97;50.84;100856.03;2083491;28;933;-59
2021/10/17 05:16:12;;;;;;;;;;;;;;;22.93;51.59;100855.28;2083572;28;1403;-59
2021/10/17 05:17:12;;;;;;;;;;;;;;;22.98;51.42;100858.66;2083552;28;993;-59